createdAt,value
2022-10-10T00:00:52.632Z,15.30
2022-10-10T00:01:52.665Z,16.30
2022-10-10T00:02:52.847Z,13.50
2022-10-10T00:03:52.607Z,12.70
2022-10-10T00:04:52.598Z,13.20
2022-10-10T00:05:52.588Z,12.10
2022-10-10T00:06:52.594Z,15.30
2022-10-10T00:07:52.564Z,11.80
2022-10-10T00:08:52.557Z,11.30
2022-10-10T00:09:52.547Z,12.80
2022-10-10T00:10:52.530Z,12.90
2022-10-10T00:11:52.547Z,11.00
2022-10-10T00:12:52.867Z,14.60
2022-10-10T00:13:52.510Z,14.60
2022-10-10T00:14:52.488Z,14.70
2022-10-10T00:15:52.495Z,16.30
2022-10-10T00:16:53.484Z,15.50
2022-10-10T00:17:52.464Z,14.90
2022-10-10T00:18:52.453Z,14.70
2022-10-10T00:19:52.445Z,12.50
2022-10-10T00:20:52.432Z,15.20
2022-10-10T00:21:52.437Z,12.50
2022-10-10T00:22:52.734Z,16.60
2022-10-10T00:23:52.404Z,14.40
2022-10-10T00:24:52.392Z,14.40
2022-10-10T00:25:52.392Z,13.90
2022-10-10T00:26:52.396Z,15.40
2022-10-10T00:27:52.361Z,11.70
2022-10-10T00:28:52.349Z,16.60
2022-10-10T00:29:52.345Z,13.80
2022-10-10T00:30:52.349Z,16.00
2022-10-10T00:31:52.342Z,13.40
2022-10-10T00:32:52.545Z,14.70
2022-10-10T00:33:52.300Z,12.80
2022-10-10T00:34:52.294Z,12.20
2022-10-10T00:35:52.276Z,13.70
2022-10-10T00:36:52.289Z,11.80
2022-10-10T00:37:52.268Z,16.10
2022-10-10T00:38:52.254Z,12.50
2022-10-10T00:39:52.236Z,16.10
2022-10-10T00:40:53.240Z,15.80
2022-10-10T00:41:52.246Z,15.80
2022-10-10T00:42:52.408Z,13.70
2022-10-10T00:43:52.200Z,15.30
2022-10-10T00:44:52.199Z,12.80
2022-10-10T00:45:52.182Z,17.50
2022-10-10T00:46:52.199Z,14.90
2022-10-10T00:47:52.164Z,12.10
2022-10-10T00:48:52.158Z,14.70
2022-10-10T00:49:52.145Z,14.90
2022-10-10T00:50:52.145Z,15.10
2022-10-10T00:51:52.140Z,12.50
2022-10-10T00:52:52.702Z,14.20
2022-10-10T00:53:52.111Z,11.60
2022-10-10T00:54:52.101Z,10.70
2022-10-10T00:55:52.090Z,10.80
2022-10-10T00:56:52.089Z,9.80
2022-10-10T00:57:52.121Z,12.90
2022-10-10T00:58:52.079Z,12.40
2022-10-10T00:59:52.065Z,11.20
2022-10-10T01:00:52.093Z,14.10
2022-10-10T01:01:52.038Z,14.10
2022-10-10T01:02:52.612Z,12.30
2022-10-10T01:03:52.024Z,14.40
2022-10-10T01:04:52.014Z,12.00
2022-10-10T01:05:52.014Z,12.60
2022-10-10T01:06:51.994Z,13.40
2022-10-10T01:07:51.999Z,12.40
2022-10-10T01:08:51.979Z,12.70
2022-10-10T01:09:51.970Z,13.60
2022-10-10T01:10:51.963Z,12.00
2022-10-10T01:11:51.945Z,16.80
2022-10-10T01:12:52.356Z,16.40
2022-10-10T01:13:51.924Z,15.60
2022-10-10T01:14:51.920Z,14.90
2022-10-10T01:15:51.905Z,11.10
2022-10-10T01:16:51.893Z,12.60
2022-10-10T01:17:51.907Z,16.10
2022-10-10T01:18:51.885Z,13.70
2022-10-10T01:19:51.873Z,14.10
2022-10-10T01:20:51.862Z,14.70
2022-10-10T01:21:51.860Z,14.20
2022-10-10T01:22:52.277Z,17.00
2022-10-10T01:23:51.842Z,14.20
2022-10-10T01:24:51.833Z,16.40
2022-10-10T01:25:51.822Z,18.50
2022-10-10T01:26:51.813Z,12.90
2022-10-10T01:27:51.818Z,13.20
2022-10-10T01:28:51.802Z,12.90
2022-10-10T01:29:51.778Z,13.00
2022-10-10T01:30:51.763Z,13.50
2022-10-10T01:31:51.762Z,12.00
2022-10-10T01:32:52.086Z,13.80
2022-10-10T01:33:51.734Z,12.70
2022-10-10T01:34:51.726Z,14.10
2022-10-10T01:35:51.717Z,12.90
2022-10-10T01:36:51.714Z,14.30
2022-10-10T01:37:51.711Z,13.10
2022-10-10T01:38:52.696Z,14.40
2022-10-10T01:39:51.675Z,15.10
2022-10-10T01:40:51.674Z,14.00
2022-10-10T01:41:51.662Z,16.60
2022-10-10T01:42:52.072Z,11.90
2022-10-10T01:43:51.637Z,16.30
2022-10-10T01:44:51.638Z,16.00
2022-10-10T01:45:51.620Z,13.00
2022-10-10T01:46:51.617Z,13.80
2022-10-10T01:47:51.623Z,13.50
2022-10-10T01:48:51.597Z,14.20
2022-10-10T01:49:51.587Z,12.90
2022-10-10T01:50:51.579Z,12.50
2022-10-10T01:51:51.570Z,12.20
2022-10-10T01:52:51.995Z,13.70
2022-10-10T01:53:51.559Z,14.10
2022-10-10T01:54:51.540Z,12.00
2022-10-10T01:55:51.553Z,15.80
2022-10-10T01:56:51.517Z,12.40
2022-10-10T01:57:51.529Z,14.10
2022-10-10T01:58:51.507Z,14.40
2022-10-10T01:59:51.492Z,15.80
2022-10-10T02:00:51.521Z,13.20
2022-10-10T02:01:51.468Z,14.50
2022-10-10T02:02:51.746Z,15.30
2022-10-10T02:03:51.449Z,16.40
2022-10-10T02:04:51.451Z,17.20
2022-10-10T02:05:51.439Z,17.00
2022-10-10T02:06:51.421Z,18.90
2022-10-10T02:07:51.429Z,18.20
2022-10-10T02:08:51.411Z,18.00
2022-10-10T02:09:51.392Z,15.60
2022-10-10T02:10:51.387Z,17.00
2022-10-10T02:11:51.380Z,15.20
2022-10-10T02:12:51.713Z,14.80
2022-10-10T02:13:51.361Z,16.70
2022-10-10T02:14:51.387Z,13.90
2022-10-10T02:15:51.352Z,14.20
2022-10-10T02:16:51.330Z,16.10
2022-10-10T02:17:51.344Z,13.60
2022-10-10T02:18:51.305Z,11.30
2022-10-10T02:19:51.299Z,15.20
2022-10-10T02:20:51.286Z,14.10
2022-10-10T02:21:51.290Z,18.70
2022-10-10T02:22:51.580Z,17.80
2022-10-10T02:23:51.271Z,18.40
2022-10-10T02:24:51.253Z,22.00
2022-10-10T02:25:51.312Z,23.70
2022-10-10T02:26:51.259Z,22.80
2022-10-10T02:27:51.243Z,22.50
2022-10-10T02:28:51.216Z,23.10
2022-10-10T02:29:51.219Z,24.10
2022-10-10T02:30:51.197Z,24.90
2022-10-10T02:31:51.186Z,20.70
2022-10-10T02:32:51.504Z,19.20
2022-10-10T02:33:51.172Z,17.90
2022-10-10T02:34:51.173Z,16.10
2022-10-10T02:35:51.147Z,14.90
2022-10-10T02:36:51.140Z,15.50
2022-10-10T02:37:51.181Z,19.00
2022-10-10T02:38:51.125Z,13.90
2022-10-10T02:39:51.118Z,17.30
2022-10-10T02:40:51.120Z,13.60
2022-10-10T02:41:51.094Z,17.40
2022-10-10T02:42:51.367Z,19.30
2022-10-10T02:43:51.077Z,28.30
2022-10-10T02:44:51.070Z,25.50
2022-10-10T02:45:51.089Z,27.80
2022-10-10T02:46:51.038Z,23.10
2022-10-10T02:47:51.058Z,28.00
2022-10-10T02:48:51.027Z,26.60
2022-10-10T02:49:51.019Z,23.30
2022-10-10T02:50:51.001Z,20.30
2022-10-10T02:51:50.998Z,22.10
2022-10-10T02:52:51.337Z,19.30
2022-10-10T02:53:50.974Z,19.90
2022-10-10T02:54:50.972Z,17.70
2022-10-10T02:55:50.961Z,15.40
2022-10-10T02:56:50.952Z,15.60
2022-10-10T02:57:50.959Z,13.30
2022-10-10T02:58:50.928Z,15.90
2022-10-10T02:59:50.919Z,13.00
2022-10-10T03:00:50.948Z,15.10
2022-10-10T03:01:50.894Z,12.70
2022-10-10T03:02:51.118Z,14.90
2022-10-10T03:03:50.886Z,15.60
2022-10-10T03:04:50.867Z,10.60
2022-10-10T03:05:50.859Z,10.60
2022-10-10T03:06:50.850Z,12.50
2022-10-10T03:07:50.856Z,12.40
2022-10-10T03:08:50.833Z,11.20
2022-10-10T03:09:50.815Z,11.50
2022-10-10T03:10:50.815Z,16.30
2022-10-10T03:11:50.809Z,15.60
2022-10-10T03:12:51.146Z,18.20
2022-10-10T03:13:50.768Z,22.30
2022-10-10T03:14:50.769Z,16.20
2022-10-10T03:15:50.753Z,13.90
2022-10-10T03:16:50.754Z,18.60
2022-10-10T03:17:50.761Z,22.10
2022-10-10T03:18:50.743Z,15.10
2022-10-10T03:19:50.712Z,12.70
2022-10-10T03:20:50.703Z,14.40
2022-10-10T03:21:50.704Z,11.40
2022-10-10T03:22:50.981Z,12.10
2022-10-10T03:23:50.678Z,18.50
2022-10-10T03:24:50.667Z,11.80
2022-10-10T03:25:50.694Z,11.00
2022-10-10T03:26:50.656Z,14.30
2022-10-10T03:27:50.658Z,11.50
2022-10-10T03:28:50.616Z,10.10
2022-10-10T03:29:51.615Z,10.60
2022-10-10T03:30:50.584Z,10.20
2022-10-10T03:31:50.591Z,12.80
2022-10-10T03:32:50.765Z,13.40
2022-10-10T03:33:50.565Z,10.50
2022-10-10T03:34:50.554Z,12.40
2022-10-10T03:35:50.553Z,12.30
2022-10-10T03:36:50.561Z,11.10
2022-10-10T03:37:50.542Z,14.50
2022-10-10T03:38:50.506Z,10.10
2022-10-10T03:39:50.515Z,12.20
2022-10-10T03:40:50.492Z,13.60
2022-10-10T03:41:50.515Z,11.10
2022-10-10T03:42:50.720Z,12.80
2022-10-10T03:43:50.479Z,11.50
2022-10-10T03:44:50.474Z,13.50
2022-10-10T03:45:50.491Z,11.70
2022-10-10T03:46:50.427Z,15.80
2022-10-10T03:47:50.470Z,11.50
2022-10-10T03:48:50.412Z,13.50
2022-10-10T03:49:50.415Z,13.50
2022-10-10T03:50:50.386Z,13.50
2022-10-10T03:51:50.386Z,13.90
2022-10-10T03:52:50.730Z,13.30
2022-10-10T03:53:50.392Z,13.50
2022-10-10T03:54:50.369Z,13.60
2022-10-10T03:55:50.352Z,11.20
2022-10-10T03:56:50.351Z,16.80
2022-10-10T03:57:50.355Z,12.80
2022-10-10T03:58:50.330Z,12.70
2022-10-10T03:59:50.308Z,13.90
2022-10-10T04:00:50.309Z,15.50
2022-10-10T04:01:50.291Z,14.80
2022-10-10T04:02:50.595Z,14.30
2022-10-10T04:03:52.281Z,15.10
2022-10-10T04:04:51.265Z,14.70
2022-10-10T04:05:50.245Z,14.30
2022-10-10T04:06:50.247Z,17.20
2022-10-10T04:07:50.250Z,15.00
2022-10-10T04:08:50.214Z,14.10
2022-10-10T04:09:50.205Z,14.80
2022-10-10T04:10:50.207Z,13.50
2022-10-10T04:11:50.217Z,16.80
2022-10-10T04:12:50.510Z,17.60
2022-10-10T04:13:50.192Z,18.40
2022-10-10T04:14:50.176Z,15.20
2022-10-10T04:15:50.152Z,15.30
2022-10-10T04:16:50.145Z,12.60
2022-10-10T04:17:50.134Z,16.90
2022-10-10T04:18:50.146Z,13.80
2022-10-10T04:19:50.118Z,14.40
2022-10-10T04:20:50.102Z,14.40
2022-10-10T04:21:50.089Z,12.50
2022-10-10T04:22:50.408Z,14.10
2022-10-10T04:23:50.093Z,12.60
2022-10-10T04:24:50.061Z,13.30
2022-10-10T04:25:50.054Z,17.30
2022-10-10T04:26:50.041Z,12.60
2022-10-10T04:27:50.050Z,12.00
2022-10-10T04:28:50.049Z,13.80
2022-10-10T04:29:50.011Z,12.00
2022-10-10T04:30:50.002Z,12.90
2022-10-10T04:31:49.988Z,14.20
2022-10-10T04:32:50.187Z,14.50
2022-10-10T04:33:49.990Z,13.30
2022-10-10T04:34:49.960Z,16.00
2022-10-10T04:35:49.949Z,19.80
2022-10-10T04:36:50.937Z,14.50
2022-10-10T04:37:49.938Z,19.40
2022-10-10T04:38:49.934Z,20.60
2022-10-10T04:39:49.909Z,14.90
2022-10-10T04:40:49.907Z,14.20
2022-10-10T04:41:49.937Z,16.20
2022-10-10T04:42:50.172Z,14.30
2022-10-10T04:43:49.889Z,15.40
2022-10-10T04:44:49.865Z,16.00
2022-10-10T04:45:49.850Z,17.20
2022-10-10T04:46:49.846Z,17.30
2022-10-10T04:47:49.836Z,15.70
2022-10-10T04:48:49.846Z,16.10
2022-10-10T04:49:49.813Z,14.50
2022-10-10T04:50:49.804Z,15.20
2022-10-10T04:51:49.796Z,19.80
2022-10-10T04:52:50.185Z,16.60
2022-10-10T04:53:50.707Z,14.50
2022-10-10T04:54:50.773Z,17.00
2022-10-10T04:55:49.745Z,17.90
2022-10-10T04:56:49.752Z,13.20
2022-10-10T04:57:49.739Z,13.20
2022-10-10T04:58:49.745Z,18.10
2022-10-10T04:59:49.723Z,15.60
2022-10-10T05:00:49.705Z,15.30
2022-10-10T05:01:49.708Z,12.90
2022-10-10T05:02:50.081Z,13.00
2022-10-10T05:03:49.706Z,17.30
2022-10-10T05:04:49.676Z,17.20
2022-10-10T05:05:49.666Z,16.30
2022-10-10T05:06:49.659Z,15.00
2022-10-10T05:07:54.466Z,15.00
2022-10-10T05:08:51.658Z,14.30
2022-10-10T05:09:49.628Z,17.40
2022-10-10T05:10:49.623Z,13.80
2022-10-10T05:11:49.610Z,16.60
2022-10-10T05:12:49.930Z,12.70
2022-10-10T05:13:50.604Z,15.10
2022-10-10T05:14:49.586Z,17.90
2022-10-10T05:15:49.577Z,14.70
2022-10-10T05:16:49.560Z,14.10
2022-10-10T05:17:49.554Z,17.40
2022-10-10T05:18:49.575Z,13.00
2022-10-10T05:19:49.530Z,14.80
2022-10-10T05:20:50.531Z,18.30
2022-10-10T05:21:49.515Z,16.10
2022-10-10T05:22:49.844Z,15.80
2022-10-10T05:23:49.518Z,16.00
2022-10-10T05:24:49.486Z,14.60
2022-10-10T05:25:49.479Z,15.30
2022-10-10T05:26:49.471Z,13.50
2022-10-10T05:27:49.465Z,13.70
2022-10-10T05:28:49.470Z,14.90
2022-10-10T05:29:49.436Z,14.00
2022-10-10T05:30:49.432Z,14.00
2022-10-10T05:31:49.423Z,15.40
2022-10-10T05:32:49.698Z,17.80
2022-10-10T05:33:49.439Z,14.40
2022-10-10T05:34:49.396Z,13.10
2022-10-10T05:35:49.390Z,14.70
2022-10-10T05:36:49.381Z,15.70
2022-10-10T05:37:49.366Z,18.30
2022-10-10T05:38:49.379Z,19.10
2022-10-10T05:39:54.396Z,19.20
2022-10-10T05:40:50.343Z,16.80
2022-10-10T05:41:49.331Z,16.50
2022-10-10T05:42:49.666Z,22.40
2022-10-10T05:43:49.336Z,19.70
2022-10-10T05:44:49.301Z,17.30
2022-10-10T05:45:49.301Z,19.90
2022-10-10T05:46:49.293Z,16.10
2022-10-10T05:47:49.282Z,20.90
2022-10-10T05:48:49.286Z,18.20
2022-10-10T05:49:49.262Z,15.10
2022-10-10T05:50:49.259Z,17.30
2022-10-10T05:51:49.244Z,14.70
2022-10-10T05:52:49.503Z,18.60
2022-10-10T05:53:49.238Z,18.50
2022-10-10T05:54:49.216Z,20.00
2022-10-10T05:55:49.201Z,18.70
2022-10-10T05:56:49.192Z,20.20
2022-10-10T05:57:49.205Z,17.80
2022-10-10T05:58:49.192Z,16.70
2022-10-10T05:59:49.175Z,18.00
2022-10-10T06:00:49.162Z,16.30
2022-10-10T06:01:49.157Z,16.40
2022-10-10T06:02:49.620Z,15.60
2022-10-10T06:03:49.158Z,18.80
2022-10-10T06:04:49.111Z,15.50
2022-10-10T06:05:49.130Z,16.50
2022-10-10T06:06:49.104Z,18.20
2022-10-10T06:08:09.268Z,18.10
2022-10-10T06:08:51.102Z,18.80
2022-10-10T06:09:49.069Z,18.80
2022-10-10T06:10:49.072Z,17.30
2022-10-10T06:11:49.053Z,13.70
2022-10-10T06:12:49.383Z,13.10
2022-10-10T06:13:49.054Z,14.70
2022-10-10T06:14:49.026Z,13.70
2022-10-10T06:15:49.014Z,18.80
2022-10-10T06:16:48.995Z,15.10
2022-10-10T06:17:49.019Z,15.80
2022-10-10T06:18:49.013Z,14.80
2022-10-10T06:19:48.985Z,16.60
2022-10-10T06:20:48.984Z,12.20
2022-10-10T06:21:48.957Z,13.90
2022-10-10T06:23:20.908Z,13.40
2022-10-10T06:23:48.966Z,14.80
2022-10-10T06:24:52.917Z,14.60
2022-10-10T06:25:49.924Z,13.60
2022-10-10T06:26:48.921Z,17.20
2022-10-10T06:27:48.905Z,15.40
2022-10-10T06:28:48.959Z,16.40
2022-10-10T06:29:48.884Z,13.70
2022-10-10T06:30:48.875Z,18.00
2022-10-10T06:31:48.868Z,12.50
2022-10-10T06:32:50.850Z,18.80
2022-10-10T06:33:48.887Z,12.50
2022-10-10T06:34:48.839Z,16.20
2022-10-10T06:35:48.827Z,16.00
2022-10-10T06:36:48.818Z,17.90
2022-10-10T06:37:48.806Z,17.60
2022-10-10T06:38:48.811Z,19.10
2022-10-10T06:39:48.785Z,17.20
2022-10-10T06:40:48.766Z,13.60
2022-10-10T06:41:48.764Z,15.20
2022-10-10T06:42:49.039Z,15.70
2022-10-10T06:43:48.760Z,14.50
2022-10-10T06:44:48.738Z,19.90
2022-10-10T06:45:48.728Z,17.40
2022-10-10T06:46:48.717Z,12.60
2022-10-10T06:47:48.704Z,13.70
2022-10-10T06:48:48.706Z,14.00
2022-10-10T06:49:48.720Z,12.20
2022-10-10T06:50:48.677Z,12.80
2022-10-10T06:51:48.714Z,16.50
2022-10-10T06:52:49.021Z,18.90
2022-10-10T06:53:48.658Z,10.90
2022-10-10T06:54:48.631Z,17.50
2022-10-10T06:55:48.621Z,14.70
2022-10-10T06:56:48.611Z,15.20
2022-10-10T06:57:48.605Z,13.80
2022-10-10T06:58:48.612Z,14.60
2022-10-10T06:59:48.582Z,14.70
2022-10-10T07:00:48.569Z,13.70
2022-10-10T07:01:48.597Z,15.60
2022-10-10T07:02:48.841Z,13.00
2022-10-10T07:03:48.541Z,12.00
2022-10-10T07:04:49.532Z,15.90
2022-10-10T07:05:48.514Z,12.80
2022-10-10T07:06:48.600Z,14.40
2022-10-10T07:07:48.494Z,12.80
2022-10-10T07:08:48.495Z,14.00
2022-10-10T07:09:48.467Z,14.10
2022-10-10T07:10:48.466Z,13.00
2022-10-10T07:11:48.453Z,12.60
2022-10-10T07:12:48.441Z,12.70
2022-10-10T07:13:48.447Z,12.30
2022-10-10T07:14:48.418Z,11.90
2022-10-10T07:15:48.409Z,12.30
2022-10-10T07:16:48.391Z,13.70
2022-10-10T07:17:54.172Z,11.30
2022-10-10T07:18:50.394Z,11.40
2022-10-10T07:19:48.371Z,10.70
2022-10-10T07:20:48.374Z,9.20
2022-10-10T07:21:48.335Z,12.70
2022-10-10T07:22:48.541Z,13.80
2022-10-10T07:23:48.340Z,10.20
2022-10-10T07:24:48.303Z,13.00
2022-10-10T07:25:48.299Z,13.60
2022-10-10T07:26:48.285Z,10.90
2022-10-10T07:27:48.271Z,13.10
2022-10-10T07:28:48.271Z,13.10
2022-10-10T07:29:48.250Z,14.90
2022-10-10T07:30:48.245Z,14.80
2022-10-10T07:31:48.229Z,13.60
2022-10-10T07:32:48.494Z,12.50
2022-10-10T07:33:50.491Z,14.20
2022-10-10T07:34:49.193Z,12.00
2022-10-10T07:35:48.186Z,16.60
2022-10-10T07:36:48.165Z,13.60
2022-10-10T07:37:48.166Z,12.40
2022-10-10T07:38:48.167Z,13.00
2022-10-10T07:39:48.144Z,10.30
2022-10-10T07:40:48.129Z,9.60
2022-10-10T07:41:48.119Z,13.70
2022-10-10T07:42:48.308Z,16.00
2022-10-10T07:43:48.131Z,9.80
2022-10-10T07:44:48.084Z,9.60
2022-10-10T07:45:48.125Z,11.60
2022-10-10T07:46:48.071Z,8.30
2022-10-10T07:47:48.364Z,10.00
2022-10-10T07:48:48.067Z,9.30
2022-10-10T07:49:48.034Z,13.60
2022-10-10T07:50:48.039Z,11.30
2022-10-10T07:51:48.015Z,9.00
2022-10-10T07:52:48.001Z,10.90
2022-10-10T07:53:48.010Z,9.00
2022-10-10T07:54:47.977Z,11.10
2022-10-10T07:55:47.976Z,6.50
2022-10-10T07:56:47.960Z,7.30
2022-10-10T07:57:53.089Z,10.20
2022-10-10T07:58:49.965Z,9.80
2022-10-10T07:59:47.938Z,11.80
2022-10-10T08:00:48.012Z,11.30
2022-10-10T08:01:48.001Z,11.70
2022-10-10T08:02:47.904Z,10.40
2022-10-10T08:03:47.913Z,8.70
2022-10-10T08:04:47.880Z,11.10
2022-10-10T08:05:47.877Z,8.40
2022-10-10T08:06:47.876Z,12.00
2022-10-10T08:07:47.867Z,10.40
2022-10-10T08:08:51.374Z,11.90
2022-10-10T08:09:47.848Z,13.60
2022-10-10T08:10:47.912Z,8.70
2022-10-10T08:11:47.826Z,11.50
2022-10-10T08:12:47.813Z,11.50
2022-10-10T08:13:47.821Z,10.30
2022-10-10T08:14:47.785Z,9.60
2022-10-10T08:15:47.774Z,10.30
2022-10-10T08:16:47.753Z,11.90
2022-10-10T08:17:47.820Z,10.50
2022-10-10T08:18:47.817Z,9.40
2022-10-10T08:19:47.741Z,10.30
2022-10-10T08:20:47.725Z,10.10
2022-10-10T08:21:47.752Z,11.90
2022-10-10T08:22:47.947Z,8.20
2022-10-10T08:23:47.723Z,10.30
2022-10-10T08:24:47.679Z,11.10
2022-10-10T08:25:47.680Z,9.50
2022-10-10T08:26:47.672Z,8.70
2022-10-10T08:27:47.672Z,10.90
2022-10-10T08:28:47.688Z,10.70
2022-10-10T08:29:47.644Z,10.30
2022-10-10T08:30:47.631Z,8.70
2022-10-10T08:31:47.640Z,11.40
2022-10-10T08:32:47.642Z,9.50
2022-10-10T08:33:47.617Z,8.50
2022-10-10T08:34:47.597Z,10.20
2022-10-10T08:35:47.587Z,9.60
2022-10-10T08:36:47.576Z,10.20
2022-10-10T08:37:47.568Z,12.90
2022-10-10T08:38:47.583Z,10.60
2022-10-10T08:39:47.547Z,8.40
2022-10-10T08:40:47.553Z,11.10
2022-10-10T08:41:47.531Z,12.10
2022-10-10T08:42:52.509Z,7.70
2022-10-10T08:43:49.534Z,9.50
2022-10-10T08:44:47.503Z,10.00
2022-10-10T08:45:47.491Z,7.90
2022-10-10T08:46:47.481Z,7.80
2022-10-10T08:47:47.473Z,8.10
2022-10-10T08:48:47.476Z,11.80
2022-10-10T08:49:47.448Z,10.20
2022-10-10T08:50:47.442Z,11.90
2022-10-10T08:51:47.438Z,10.00
2022-10-10T08:52:47.417Z,8.10
2022-10-10T08:53:47.426Z,12.20
2022-10-10T08:54:47.391Z,10.30
2022-10-10T08:55:47.389Z,8.10
2022-10-10T08:56:47.371Z,9.90
2022-10-10T08:57:47.363Z,8.90
2022-10-10T08:58:47.428Z,8.40
2022-10-10T08:59:47.389Z,9.50
2022-10-10T09:00:47.411Z,9.20
2022-10-10T09:02:18.078Z,11.70
2022-10-10T09:02:54.128Z,12.90
2022-10-10T09:03:49.327Z,8.80
2022-10-10T09:04:47.309Z,9.10
2022-10-10T09:05:47.288Z,10.10
2022-10-10T09:06:47.280Z,9.00
2022-10-10T09:07:47.272Z,9.40
2022-10-10T09:08:47.272Z,8.40
2022-10-10T09:09:47.248Z,9.50
2022-10-10T09:10:47.246Z,10.50
2022-10-10T09:11:47.230Z,9.60
2022-10-10T09:12:47.219Z,11.50
2022-10-10T09:13:47.234Z,8.80
2022-10-10T09:14:47.204Z,9.70
2022-10-10T09:15:47.193Z,14.00
2022-10-10T09:16:47.162Z,10.80
2022-10-10T09:17:47.172Z,10.40
2022-10-10T09:18:47.181Z,10.30
2022-10-10T09:19:47.146Z,9.60
2022-10-10T09:20:47.128Z,12.20
2022-10-10T09:21:47.123Z,8.70
2022-10-10T09:22:47.119Z,11.50
2022-10-10T09:23:47.120Z,11.00
2022-10-10T09:24:47.090Z,10.80
2022-10-10T09:25:47.081Z,10.00
2022-10-10T09:26:47.077Z,7.70
2022-10-10T09:27:47.067Z,8.70
2022-10-10T09:28:47.089Z,9.90
2022-10-10T09:29:47.046Z,10.30
2022-10-10T09:30:47.032Z,11.10
2022-10-10T09:31:47.035Z,10.70
2022-10-10T09:32:47.015Z,10.20
2022-10-10T09:33:47.016Z,8.40
2022-10-10T09:34:47.003Z,9.80
2022-10-10T09:35:46.997Z,10.20
2022-10-10T09:36:46.977Z,12.50
2022-10-10T09:37:48.126Z,10.40
2022-10-10T09:38:47.984Z,13.70
2022-10-10T09:39:47.020Z,12.30
2022-10-10T09:40:46.933Z,8.90
2022-10-10T09:41:46.926Z,10.60
2022-10-10T09:42:46.914Z,10.10
2022-10-10T09:43:46.921Z,10.40
2022-10-10T09:44:46.897Z,10.80
2022-10-10T09:45:46.877Z,10.70
2022-10-10T09:46:46.879Z,11.10
2022-10-10T09:47:46.866Z,8.40
2022-10-10T09:48:46.868Z,13.10
2022-10-10T09:49:46.871Z,10.50
2022-10-10T09:50:46.841Z,11.80
2022-10-10T09:51:46.818Z,9.50
2022-10-10T09:52:46.817Z,12.80
2022-10-10T09:53:46.815Z,12.90
2022-10-10T09:54:46.790Z,9.80
2022-10-10T09:55:46.778Z,11.90
2022-10-10T09:56:46.776Z,9.00
2022-10-10T09:57:46.756Z,11.20
2022-10-10T09:58:46.765Z,9.90
2022-10-10T09:59:46.823Z,12.00
2022-10-10T10:00:46.776Z,12.70
2022-10-10T10:01:46.723Z,12.90
2022-10-10T10:02:46.707Z,11.90
2022-10-10T10:03:46.764Z,14.30
2022-10-10T10:04:46.687Z,14.10
2022-10-10T10:05:46.679Z,10.90
2022-10-10T10:06:46.671Z,13.20
2022-10-10T10:07:46.660Z,11.50
2022-10-10T10:08:49.850Z,11.60
2022-10-10T10:09:47.660Z,10.50
2022-10-10T10:10:46.625Z,11.70
2022-10-10T10:11:46.620Z,13.10
2022-10-10T10:12:46.609Z,13.40
2022-10-10T10:13:46.615Z,12.20
2022-10-10T10:14:46.579Z,10.00
2022-10-10T10:15:46.573Z,10.00
2022-10-10T10:16:46.570Z,12.80
2022-10-10T10:17:46.559Z,12.30
2022-10-10T10:18:46.591Z,11.50
2022-10-10T10:19:46.540Z,9.50
2022-10-10T10:20:46.531Z,13.50
2022-10-10T10:21:46.529Z,12.30
2022-10-10T10:22:46.551Z,11.70
2022-10-10T10:23:46.528Z,11.20
2022-10-10T10:24:46.523Z,12.60
2022-10-10T10:25:46.481Z,11.80
2022-10-10T10:26:46.471Z,9.20
2022-10-10T10:27:46.464Z,13.50
2022-10-10T10:28:46.520Z,11.60
2022-10-10T10:29:46.447Z,11.40
2022-10-10T10:30:46.435Z,12.90
2022-10-10T10:31:46.415Z,12.70
2022-10-10T10:32:46.425Z,14.80
2022-10-10T10:33:46.425Z,11.00
2022-10-10T10:34:46.393Z,12.40
2022-10-10T10:35:46.390Z,12.40
2022-10-10T10:36:46.384Z,14.10
2022-10-10T10:37:46.372Z,13.60
2022-10-10T10:38:46.375Z,9.70
2022-10-10T10:39:46.344Z,12.00
2022-10-10T10:40:46.337Z,14.00
2022-10-10T10:41:46.324Z,10.90
2022-10-10T10:42:46.356Z,11.90
2022-10-10T10:43:46.322Z,10.60
2022-10-10T10:44:46.307Z,11.20
2022-10-10T10:45:46.294Z,13.60
2022-10-10T10:46:46.261Z,14.30
2022-10-10T10:47:46.262Z,11.10
2022-10-10T10:48:46.281Z,9.80
2022-10-10T10:49:46.245Z,12.00
2022-10-10T10:50:46.324Z,12.00
2022-10-10T10:51:46.228Z,11.60
2022-10-10T10:52:46.213Z,11.30
2022-10-10T10:53:46.224Z,12.80
2022-10-10T10:54:46.203Z,11.90
2022-10-10T10:55:46.182Z,15.40
2022-10-10T10:56:46.184Z,11.80
2022-10-10T10:58:04.796Z,11.80
2022-10-10T11:00:21.646Z,11.00
2022-10-10T11:01:23.794Z,11.90
2022-10-10T11:01:57.778Z,12.10
2022-10-10T11:02:59.617Z,12.10
2022-10-10T11:05:20.844Z,16.10
2022-10-10T11:05:24.937Z,11.60
2022-10-10T11:05:47.218Z,12.90
2022-10-10T11:07:06.316Z,11.60
2022-10-10T11:07:47.140Z,10.40
2022-10-10T11:08:46.072Z,9.30
2022-10-10T11:09:49.957Z,11.90
2022-10-10T11:10:47.031Z,14.50
2022-10-10T11:11:46.029Z,11.90
2022-10-10T11:12:46.016Z,10.40
2022-10-10T11:13:46.029Z,13.60
2022-10-10T11:14:45.993Z,14.20
2022-10-10T11:16:49.149Z,12.90
2022-10-10T11:17:46.972Z,11.00
2022-10-10T11:18:45.973Z,9.50
2022-10-10T11:19:45.952Z,12.60
2022-10-10T11:20:45.939Z,10.50
2022-10-10T11:21:45.923Z,13.10
2022-10-10T11:22:46.899Z,14.10
2022-10-10T11:23:45.948Z,11.50
2022-10-10T11:24:45.906Z,13.30
2022-10-10T11:25:45.887Z,9.90
2022-10-10T11:26:45.867Z,15.40
2022-10-10T11:27:45.869Z,10.80
2022-10-10T11:28:49.318Z,11.10
2022-10-10T11:29:46.844Z,12.00
2022-10-10T11:30:45.832Z,12.20
2022-10-10T11:31:45.830Z,14.10
2022-10-10T11:32:45.819Z,10.60
2022-10-10T11:33:45.832Z,14.10
2022-10-10T11:34:45.802Z,13.70
2022-10-10T11:35:45.790Z,13.00
2022-10-10T11:36:45.778Z,10.40
2022-10-10T11:37:45.763Z,15.40
2022-10-10T11:38:45.864Z,10.40
2022-10-10T11:39:45.755Z,9.40
2022-10-10T11:40:45.750Z,11.80
2022-10-10T11:41:45.737Z,9.70
2022-10-10T11:42:45.718Z,14.30
2022-10-10T11:43:45.741Z,9.80
2022-10-10T11:44:45.697Z,11.80
2022-10-10T11:45:45.702Z,9.50
2022-10-10T11:46:45.713Z,12.80
2022-10-10T11:47:45.684Z,10.20
2022-10-10T11:48:45.688Z,12.70
2022-10-10T11:49:45.638Z,14.00
2022-10-10T11:50:45.643Z,13.40
2022-10-10T11:51:45.634Z,12.00
2022-10-10T11:52:45.624Z,13.70
2022-10-10T11:53:45.623Z,11.80
2022-10-10T11:54:45.600Z,15.40
2022-10-10T11:55:45.588Z,11.40
2022-10-10T11:56:45.583Z,13.90
2022-10-10T11:57:45.561Z,10.60
2022-10-10T11:58:45.580Z,14.50
2022-10-10T11:59:45.543Z,12.40
2022-10-10T12:00:46.546Z,11.70
2022-10-10T12:01:45.577Z,17.30
2022-10-10T12:02:45.526Z,10.30
2022-10-10T12:03:45.539Z,11.70
2022-10-10T12:04:45.514Z,9.60
2022-10-10T12:05:45.493Z,12.50
2022-10-10T12:06:45.477Z,9.90
2022-10-10T12:07:45.485Z,13.10
2022-10-10T12:08:45.479Z,12.30
2022-10-10T12:09:45.466Z,13.30
2022-10-10T12:10:45.445Z,12.00
2022-10-10T12:11:45.427Z,14.00
2022-10-10T12:12:45.418Z,12.40
2022-10-10T12:13:45.433Z,11.20
2022-10-10T12:14:45.406Z,13.90
2022-10-10T12:15:49.872Z,10.20
2022-10-10T12:16:46.391Z,11.30
2022-10-10T12:17:45.371Z,8.50
2022-10-10T12:18:45.381Z,14.50
2022-10-10T12:19:45.356Z,14.90
2022-10-10T12:20:45.349Z,13.40
2022-10-10T12:21:45.332Z,11.60
2022-10-10T12:22:45.329Z,13.60
2022-10-10T12:24:05.704Z,9.60
2022-10-10T12:24:48.425Z,11.60
2022-10-10T12:25:46.304Z,11.00
2022-10-10T12:26:45.373Z,12.30
2022-10-10T12:27:45.264Z,12.30
2022-10-10T12:28:45.310Z,13.30
2022-10-10T12:29:50.079Z,9.60
2022-10-10T12:30:47.257Z,13.70
2022-10-10T12:31:45.227Z,9.90
2022-10-10T12:32:45.222Z,13.00
2022-10-10T12:33:45.226Z,11.80
2022-10-10T12:34:45.207Z,12.20
2022-10-10T12:35:45.194Z,8.20
2022-10-10T12:36:45.183Z,11.60
2022-10-10T12:37:45.175Z,12.50
2022-10-10T12:38:45.192Z,11.00
2022-10-10T12:39:45.161Z,12.70
2022-10-10T12:40:45.148Z,14.10
2022-10-10T12:41:47.563Z,12.90
2022-10-10T12:42:46.129Z,12.70
2022-10-10T12:43:45.134Z,13.90
2022-10-10T12:44:45.111Z,11.60
2022-10-10T12:45:45.101Z,14.60
2022-10-10T12:46:45.093Z,11.60
2022-10-10T12:48:05.374Z,11.50
2022-10-10T12:48:47.099Z,12.30
2022-10-10T12:49:45.061Z,12.10
2022-10-10T12:50:45.056Z,11.80
2022-10-10T12:51:45.059Z,13.10
2022-10-10T12:52:45.032Z,10.80
2022-10-10T12:53:45.038Z,12.20
2022-10-10T12:54:45.015Z,14.40
2022-10-10T12:55:45.003Z,13.70
2022-10-10T12:56:45.742Z,10.60
2022-10-10T12:57:44.984Z,13.20